createdAt,value
2023-04-25T00:00:35.751Z,6.40
2023-04-25T00:02:37.929Z,5.63
2023-04-25T00:04:40.056Z,5.28
2023-04-25T00:06:41.969Z,5.50
2023-04-25T00:08:43.547Z,5.05
2023-04-25T00:10:45.511Z,5.38
2023-04-25T00:12:47.122Z,5.23
2023-04-25T00:14:50.148Z,4.63
2023-04-25T00:16:51.916Z,4.77
2023-04-25T00:18:53.394Z,4.30
2023-04-25T00:20:55.501Z,5.40
2023-04-25T00:22:57.116Z,4.22
2023-04-25T00:24:58.754Z,7.80
2023-04-25T00:27:00.577Z,4.20
2023-04-25T00:29:02.306Z,5.07
2023-04-25T00:31:05.407Z,5.40
2023-04-25T00:33:07.298Z,4.77
2023-04-25T00:35:10.591Z,5.38
2023-04-25T00:37:12.293Z,4.90
2023-04-25T00:39:13.874Z,5.30
2023-04-25T00:41:15.845Z,6.03
2023-04-25T00:43:17.359Z,4.90
2023-04-25T00:45:19.317Z,5.65
2023-04-25T00:47:22.493Z,5.33
2023-04-25T00:49:24.113Z,6.25
2023-04-25T00:51:26.528Z,5.97
2023-04-25T00:53:29.385Z,6.00
2023-04-25T00:55:31.291Z,5.40
2023-04-25T00:57:33.052Z,5.43
2023-04-25T00:59:35.051Z,5.63
2023-04-25T01:01:36.914Z,5.27
2023-04-25T01:03:40.889Z,5.87
2023-04-25T01:05:43.292Z,5.00
2023-04-25T01:07:45.102Z,5.22
2023-04-25T01:09:47.055Z,5.60
2023-04-25T01:11:49.394Z,5.90
2023-04-25T01:13:51.299Z,5.77
2023-04-25T01:15:53.289Z,7.33
2023-04-25T01:17:55.335Z,6.30
2023-04-25T01:19:58.421Z,5.83
2023-04-25T01:22:01.745Z,5.43
2023-04-25T01:24:03.784Z,6.10
2023-04-25T01:26:06.856Z,5.80
2023-04-25T01:28:08.883Z,6.20
2023-04-25T01:30:10.958Z,6.10
2023-04-25T01:32:13.454Z,5.82
2023-04-25T01:34:15.198Z,5.90
2023-04-25T01:36:17.203Z,6.65
2023-04-25T01:38:20.589Z,6.45
2023-04-25T01:40:23.136Z,5.20
2023-04-25T01:42:24.916Z,7.90
2023-04-25T01:44:26.667Z,6.27
2023-04-25T01:46:29.127Z,5.67
2023-04-25T01:48:30.721Z,6.13
2023-04-25T01:50:32.475Z,7.97
2023-04-25T01:52:34.149Z,7.20
2023-04-25T01:54:37.155Z,7.03
2023-04-25T01:56:39.954Z,6.88
2023-04-25T01:58:41.625Z,7.83
2023-04-25T02:00:43.489Z,7.97
2023-04-25T02:02:45.247Z,8.10
2023-04-25T02:04:47.074Z,6.20
2023-04-25T02:06:48.780Z,7.80
2023-04-25T02:08:50.426Z,7.20
2023-04-25T02:10:53.553Z,7.50
2023-04-25T02:12:55.137Z,8.23
2023-04-25T02:14:56.770Z,8.37
2023-04-25T02:16:58.554Z,7.80
2023-04-25T02:19:00.274Z,8.13
2023-04-25T02:21:01.882Z,7.10
2023-04-25T02:23:03.663Z,7.80
2023-04-25T02:25:06.253Z,7.80
2023-04-25T02:27:09.325Z,7.67
2023-04-25T02:29:11.282Z,9.00
2023-04-25T02:31:12.982Z,9.23
2023-04-25T02:33:14.559Z,8.90
2023-04-25T02:35:16.293Z,10.00
2023-04-25T02:37:17.959Z,9.87
2023-04-25T02:39:19.626Z,9.27
2023-04-25T02:41:21.198Z,9.30
2023-04-25T02:43:24.302Z,11.57
2023-04-25T02:45:25.921Z,10.73
2023-04-25T02:47:27.609Z,10.05
2023-04-25T02:49:29.223Z,11.07
2023-04-25T02:51:30.814Z,9.98
2023-04-25T02:53:32.431Z,9.50
2023-04-25T02:55:34.168Z,11.00
2023-04-25T02:57:35.753Z,9.52
2023-04-25T02:59:38.784Z,9.47
2023-04-25T03:01:40.351Z,9.83
2023-04-25T03:03:41.981Z,9.60
2023-04-25T03:05:43.820Z,8.98
2023-04-25T03:07:45.772Z,8.93
2023-04-25T03:09:47.505Z,10.33
2023-04-25T03:11:49.178Z,10.00
2023-04-25T03:13:50.958Z,9.77
2023-04-25T03:15:54.066Z,9.67
2023-04-25T03:17:55.770Z,8.47
2023-04-25T03:19:58.167Z,10.63
2023-04-25T03:21:59.822Z,10.82
2023-04-25T03:24:02.777Z,10.53
2023-04-25T03:26:04.388Z,8.77
2023-04-25T03:28:05.991Z,10.13
2023-04-25T03:30:08.696Z,9.73
2023-04-25T03:32:11.724Z,12.80
2023-04-25T03:34:13.297Z,10.20
2023-04-25T03:36:15.210Z,9.33
2023-04-25T03:38:16.929Z,9.03
2023-04-25T03:40:21.027Z,9.50
2023-04-25T03:42:23.004Z,9.20
2023-04-25T03:44:24.884Z,9.57
2023-04-25T03:46:26.744Z,11.37
2023-04-25T03:48:30.229Z,9.70
2023-04-25T03:50:31.842Z,10.30
2023-04-25T03:52:33.375Z,8.50
2023-04-25T03:54:34.999Z,10.18
2023-04-25T03:56:36.585Z,9.63
2023-04-25T03:58:38.166Z,10.67
2023-04-25T04:00:39.958Z,10.38
2023-04-25T04:02:43.954Z,10.33
2023-04-25T04:04:48.496Z,10.50
2023-04-25T04:06:50.541Z,11.80
2023-04-25T04:08:52.149Z,10.40
2023-04-25T04:10:53.903Z,11.98
2023-04-25T04:12:55.701Z,10.57
2023-04-25T04:14:57.439Z,11.77
2023-04-25T04:16:59.251Z,12.17
2023-04-25T04:19:00.924Z,10.85
2023-04-25T04:21:04.253Z,11.47
2023-04-25T04:23:06.173Z,12.10
2023-04-25T04:25:08.694Z,12.52
2023-04-25T04:27:10.385Z,11.40
2023-04-25T04:29:12.081Z,12.70
2023-04-25T04:31:14.085Z,11.63
2023-04-25T04:33:15.642Z,12.20
2023-04-25T04:35:17.381Z,12.20
2023-04-25T04:37:20.532Z,11.20
2023-04-25T04:39:22.240Z,16.77
2023-04-25T04:41:24.015Z,12.70
2023-04-25T04:43:25.598Z,10.87
2023-04-25T04:45:27.189Z,11.88
2023-04-25T04:47:28.877Z,12.98
2023-04-25T04:49:30.546Z,13.53
2023-04-25T04:51:32.191Z,14.25
2023-04-25T04:53:35.179Z,17.60
2023-04-25T04:55:37.064Z,15.63
2023-04-25T04:57:38.640Z,14.05
2023-04-25T04:59:40.224Z,13.35
2023-04-25T05:01:42.046Z,13.70
2023-04-25T05:03:43.816Z,12.47
2023-04-25T05:05:45.555Z,13.00
2023-04-25T05:07:47.162Z,12.70
2023-04-25T05:09:50.484Z,13.40
2023-04-25T05:11:52.101Z,13.67
2023-04-25T05:13:54.171Z,14.43
2023-04-25T05:15:55.771Z,13.47
2023-04-25T05:17:57.609Z,12.27
2023-04-25T05:20:00.065Z,14.47
2023-04-25T05:22:01.725Z,14.60
2023-04-25T05:24:03.523Z,13.75
2023-04-25T05:26:08.057Z,14.10
2023-04-25T05:28:09.601Z,13.85
2023-04-25T05:30:11.595Z,13.90
2023-04-25T05:32:13.318Z,15.80
2023-04-25T05:34:14.997Z,14.63
2023-04-25T05:36:16.541Z,14.40
2023-04-25T05:38:18.168Z,13.73
2023-04-25T05:40:19.709Z,14.53
2023-04-25T05:42:22.730Z,14.10
2023-04-25T05:44:24.316Z,14.67
2023-04-25T05:46:26.019Z,14.43
2023-04-25T05:48:27.683Z,15.30
2023-04-25T05:50:29.341Z,16.07
2023-04-25T05:52:30.897Z,14.52
2023-04-25T05:54:32.498Z,17.40
2023-04-25T05:56:34.062Z,17.40
2023-04-25T05:58:37.013Z,15.40
2023-04-25T06:00:38.658Z,13.40
2023-04-25T06:02:40.455Z,14.00
2023-04-25T06:04:42.289Z,15.10
2023-04-25T06:06:43.945Z,18.55
2023-04-25T06:08:45.493Z,14.63
2023-04-25T06:10:47.053Z,15.50
2023-04-25T06:12:48.720Z,15.70
2023-04-25T06:14:51.678Z,16.77
2023-04-25T06:16:53.242Z,25.07
2023-04-25T06:18:54.856Z,24.27
2023-04-25T06:20:56.521Z,18.33
2023-04-25T06:22:58.125Z,11.55
2023-04-25T06:24:59.675Z,15.25
2023-04-25T06:27:01.227Z,13.43
2023-04-25T06:29:02.939Z,13.75
2023-04-25T06:31:06.150Z,17.90
2023-04-25T06:33:07.877Z,12.77
2023-04-25T06:35:09.948Z,15.70
2023-04-25T06:37:11.556Z,16.40
2023-04-25T06:39:13.110Z,22.40
2023-04-25T06:41:14.811Z,12.05
2023-04-25T06:43:16.339Z,13.90
2023-04-25T06:45:18.038Z,21.73
2023-04-25T06:47:20.981Z,15.80
2023-04-25T06:49:22.547Z,14.43
2023-04-25T06:51:24.452Z,14.07
2023-04-25T06:53:26.123Z,14.07
2023-04-25T06:55:27.686Z,24.60
2023-04-25T06:57:29.264Z,11.57
2023-04-25T06:59:30.810Z,16.83
2023-04-25T07:01:32.390Z,14.07
2023-04-25T07:03:35.505Z,13.23
2023-04-25T07:05:37.208Z,14.90
2023-04-25T07:07:38.795Z,12.83
2023-04-25T07:09:40.330Z,16.95
2023-04-25T07:11:42.105Z,21.93
2023-04-25T07:13:43.654Z,13.95
2023-04-25T07:15:45.283Z,17.55
2023-04-25T07:17:46.890Z,12.20
2023-04-25T07:19:50.177Z,10.90
2023-04-25T07:21:54.067Z,12.70
2023-04-25T07:23:55.786Z,16.03
2023-04-25T07:25:57.339Z,12.60
2023-04-25T07:27:59.030Z,12.48
2023-04-25T07:30:00.623Z,14.83
2023-04-25T07:32:02.322Z,15.20
2023-04-25T07:34:04.001Z,15.65
2023-04-25T07:36:08.194Z,13.10
2023-04-25T07:38:09.799Z,17.60
2023-04-25T07:40:12.034Z,14.32
2023-04-25T07:42:13.897Z,10.07
2023-04-25T07:44:15.492Z,15.07
2023-04-25T07:46:17.504Z,10.20
2023-04-25T07:48:19.211Z,16.33
2023-04-25T07:50:20.752Z,16.97
2023-04-25T07:52:23.725Z,10.95
2023-04-25T07:54:25.279Z,11.67
2023-04-25T07:56:26.812Z,13.50
2023-04-25T07:58:28.371Z,12.33
2023-04-25T08:00:30.011Z,12.93
2023-04-25T08:02:31.587Z,11.88
2023-04-25T08:04:33.497Z,10.35
2023-04-25T08:06:35.583Z,14.57
2023-04-25T08:08:38.781Z,11.00
2023-04-25T08:10:42.149Z,10.00
2023-04-25T08:12:43.719Z,12.80
2023-04-25T08:14:45.382Z,11.27
2023-04-25T08:16:47.100Z,10.80
2023-04-25T08:18:49.104Z,9.67
2023-04-25T08:20:50.820Z,10.90
2023-04-25T08:22:52.477Z,10.82
2023-04-25T08:24:55.388Z,11.67
2023-04-25T08:26:56.959Z,13.73
2023-04-25T08:28:58.636Z,13.95
2023-04-25T08:31:00.613Z,9.00
2023-04-25T08:33:02.450Z,9.53
2023-04-25T08:35:04.744Z,10.10
2023-04-25T08:37:06.400Z,10.60
2023-04-25T08:39:07.958Z,9.07
2023-04-25T08:41:12.778Z,10.60
2023-04-25T08:43:15.183Z,10.83
2023-04-25T08:45:16.721Z,9.83
2023-04-25T08:47:22.540Z,15.43
2023-04-25T08:49:25.190Z,10.80
2023-04-25T08:51:28.357Z,11.67
2023-04-25T08:53:33.955Z,9.67
2023-04-25T08:55:38.344Z,9.10
2023-04-25T08:57:42.809Z,16.08
2023-04-25T08:59:46.822Z,7.13
2023-04-25T09:01:49.802Z,7.20
2023-04-25T09:03:51.721Z,11.33
2023-04-25T09:05:54.572Z,10.13
2023-04-25T09:07:56.278Z,14.63
2023-04-25T09:09:58.017Z,9.27
2023-04-25T09:11:59.905Z,8.40
2023-04-25T09:14:24.068Z,8.33
2023-04-25T09:16:25.583Z,13.80
2023-04-25T09:18:30.588Z,7.40
2023-04-25T09:20:35.220Z,8.30
2023-04-25T09:22:38.292Z,8.53
2023-04-25T09:24:41.661Z,8.97
2023-04-25T09:26:43.239Z,9.90
2023-04-25T09:28:45.110Z,9.07
2023-04-25T09:30:48.438Z,7.97
2023-04-25T09:32:49.975Z,10.93
2023-04-25T09:34:53.746Z,9.43
2023-04-25T09:36:55.600Z,10.17
2023-04-25T09:38:57.246Z,10.23
2023-04-25T09:40:59.741Z,8.20
2023-04-25T09:43:01.446Z,8.20
2023-04-25T09:45:04.208Z,10.13
2023-04-25T09:47:10.720Z,11.13
2023-04-25T09:49:15.393Z,9.70
2023-04-25T09:51:17.048Z,9.07
2023-04-25T09:53:18.629Z,13.10
2023-04-25T09:55:23.385Z,9.87
2023-04-25T09:57:25.848Z,9.30
2023-04-25T09:59:31.404Z,10.73
2023-04-25T10:01:35.268Z,12.33
2023-04-25T10:03:40.008Z,9.20
2023-04-25T10:05:43.501Z,10.43
2023-04-25T10:07:45.455Z,8.63
2023-04-25T10:09:49.658Z,12.00
2023-04-25T10:11:51.584Z,10.73
2023-04-25T10:13:53.854Z,6.93
2023-04-25T10:15:56.262Z,11.30
2023-04-25T10:17:58.221Z,10.60
2023-04-25T10:20:02.902Z,9.83
2023-04-25T10:22:09.130Z,10.27
2023-04-25T10:24:10.964Z,8.30
2023-04-25T10:26:12.528Z,11.07
2023-04-25T10:28:14.270Z,8.93
2023-04-25T10:30:16.602Z,8.53
2023-04-25T10:32:19.147Z,10.13
2023-04-25T10:34:25.264Z,12.00
2023-04-25T10:36:33.087Z,9.03
2023-04-25T10:38:34.794Z,14.60
2023-04-25T10:40:36.664Z,7.70
2023-04-25T10:42:38.273Z,9.80
2023-04-25T10:44:39.945Z,12.47
2023-04-25T10:46:41.500Z,11.10
2023-04-25T10:48:48.053Z,11.10
2023-04-25T10:50:49.705Z,10.23
2023-04-25T10:52:52.625Z,9.93
2023-04-25T10:54:55.481Z,11.20
2023-04-25T10:56:59.569Z,8.93
2023-04-25T10:59:06.161Z,7.20
2023-04-25T11:01:07.995Z,8.90
2023-04-25T11:03:09.713Z,6.90
2023-04-25T11:05:11.868Z,8.53
2023-04-25T11:07:24.972Z,6.90
2023-04-25T11:09:28.622Z,7.40
2023-04-25T11:11:30.340Z,8.70
2023-04-25T11:13:31.939Z,9.97
2023-04-25T11:15:33.597Z,5.70
2023-04-25T11:17:35.737Z,5.73
2023-04-25T11:19:37.716Z,6.80
2023-04-25T11:21:39.387Z,5.40
2023-04-25T11:23:40.994Z,9.93
2023-04-25T11:25:45.088Z,13.80
2023-04-25T11:27:53.931Z,22.17
2023-04-25T11:29:55.444Z,5.90
2023-04-25T11:31:57.937Z,9.80
2023-04-25T11:34:00.133Z,6.03
2023-04-25T11:36:01.722Z,7.60
2023-04-25T11:38:03.390Z,9.80
2023-04-25T11:40:07.260Z,7.40
2023-04-25T11:42:14.072Z,6.93
2023-04-25T11:44:16.853Z,6.23
2023-04-25T11:46:18.525Z,6.67
2023-04-25T11:48:20.937Z,5.60
2023-04-25T11:50:29.391Z,5.20
2023-04-25T11:52:41.696Z,7.00
2023-04-25T11:54:45.419Z,8.90
2023-04-25T11:56:47.603Z,6.37
2023-04-25T11:58:57.458Z,6.50
2023-04-25T12:00:59.061Z,5.90
2023-04-25T12:03:00.843Z,7.60
2023-04-25T12:05:15.848Z,7.43
2023-04-25T12:07:29.842Z,8.03
2023-04-25T12:09:33.321Z,6.60
2023-04-25T12:11:42.107Z,8.63
2023-04-25T12:13:45.079Z,5.90
2023-04-25T12:15:48.428Z,8.37
2023-04-25T12:17:51.613Z,7.13
2023-04-25T12:19:53.257Z,6.80
2023-04-25T12:21:58.543Z,5.90
2023-04-25T12:24:10.858Z,7.23
2023-04-25T12:26:12.428Z,6.73
2023-04-25T12:28:15.420Z,7.63
2023-04-25T12:30:17.232Z,6.57
2023-04-25T12:32:20.216Z,7.60
2023-04-25T12:34:22.325Z,10.07
2023-04-25T12:36:24.071Z,6.97
2023-04-25T12:38:27.103Z,6.20
2023-04-25T12:40:28.804Z,11.60
2023-04-25T12:42:30.406Z,8.10
2023-04-25T12:44:31.933Z,10.97
2023-04-25T12:46:33.549Z,6.37
2023-04-25T12:48:36.525Z,8.03
2023-04-25T12:50:38.082Z,10.95
2023-04-25T12:52:39.678Z,6.70
2023-04-25T12:54:41.420Z,9.87
2023-04-25T12:56:43.035Z,8.03
2023-04-25T12:58:44.638Z,6.90
2023-04-25T13:00:47.008Z,8.70
2023-04-25T13:02:48.875Z,8.70
2023-04-25T13:04:51.914Z,10.47
2023-04-25T13:06:53.669Z,8.43
2023-04-25T13:08:55.190Z,7.90
2023-04-25T13:10:56.735Z,9.60
2023-04-25T13:12:58.285Z,5.73
2023-04-25T13:14:59.907Z,7.47
2023-04-25T13:17:01.582Z,10.23
2023-04-25T13:19:03.443Z,6.80
2023-04-25T13:21:06.528Z,7.93
2023-04-25T13:23:08.051Z,8.70
2023-04-25T13:25:09.856Z,6.50
2023-04-25T13:27:11.354Z,7.73
2023-04-25T13:29:12.913Z,8.00
2023-04-25T13:31:14.462Z,7.40
2023-04-25T13:33:16.364Z,7.70
2023-04-25T13:35:17.979Z,7.07
2023-04-25T13:37:21.140Z,7.53
2023-04-25T13:39:22.716Z,7.50
2023-04-25T13:41:24.335Z,13.60
2023-04-25T13:43:25.969Z,7.40
2023-04-25T13:45:27.566Z,8.50
2023-04-25T13:47:29.783Z,9.47
2023-04-25T13:49:31.466Z,9.33
2023-04-25T13:51:33.121Z,9.97
2023-04-25T13:53:36.148Z,11.00
2023-04-25T13:55:37.852Z,12.00
2023-04-25T13:57:41.220Z,8.03
2023-04-25T13:59:43.071Z,10.37
2023-04-25T14:01:44.710Z,9.70
2023-04-25T14:03:46.380Z,10.93
2023-04-25T14:05:47.971Z,7.97
2023-04-25T14:07:49.595Z,10.27
2023-04-25T14:09:52.576Z,9.40
2023-04-25T14:11:54.155Z,8.70
2023-04-25T14:13:55.738Z,7.77
2023-04-25T14:15:58.412Z,12.63
2023-04-25T14:18:00.084Z,7.97
2023-04-25T14:20:01.913Z,8.07
2023-04-25T14:22:03.464Z,7.40
2023-04-25T14:24:05.302Z,7.97
2023-04-25T14:26:08.335Z,7.53
2023-04-25T14:28:10.446Z,6.40
2023-04-25T14:30:12.665Z,8.07
2023-04-25T14:32:14.203Z,7.87
2023-04-25T14:34:15.764Z,6.43
2023-04-25T14:36:17.297Z,10.40
2023-04-25T14:38:19.081Z,7.07
2023-04-25T14:40:20.776Z,7.00
2023-04-25T14:42:23.683Z,8.37
2023-04-25T14:44:25.400Z,7.70
2023-04-25T14:46:27.689Z,7.27
2023-04-25T14:48:30.290Z,8.53
2023-04-25T14:50:32.180Z,7.53
2023-04-25T14:52:33.898Z,7.70
2023-04-25T14:54:35.474Z,8.53
2023-04-25T14:56:36.992Z,9.37
2023-04-25T14:58:40.145Z,8.37
2023-04-25T15:00:41.838Z,8.00
2023-04-25T15:02:44.012Z,13.70
2023-04-25T15:04:45.980Z,8.07
2023-04-25T15:06:47.771Z,8.53
2023-04-25T15:08:49.371Z,10.53
2023-04-25T15:10:51.541Z,8.07
2023-04-25T15:12:53.123Z,11.23
2023-04-25T15:14:56.342Z,7.43
2023-04-25T15:16:58.146Z,5.57
2023-04-25T15:18:59.828Z,8.40
2023-04-25T15:21:01.418Z,7.77
2023-04-25T15:23:02.990Z,7.30
2023-04-25T15:25:05.468Z,9.07
2023-04-25T15:27:07.064Z,7.87
2023-04-25T15:29:08.625Z,6.13
2023-04-25T15:31:11.839Z,6.20
2023-04-25T15:33:13.762Z,5.50
2023-04-25T15:35:15.872Z,5.50
2023-04-25T15:37:17.626Z,6.93
2023-04-25T15:39:19.225Z,7.77
2023-04-25T15:41:20.764Z,9.03
2023-04-25T15:43:22.367Z,7.73
2023-04-25T15:45:25.629Z,6.30
2023-04-25T15:47:28.636Z,12.00
2023-04-25T15:49:30.291Z,7.97
2023-04-25T15:51:31.899Z,13.13
2023-04-25T15:53:35.244Z,7.60
2023-04-25T15:55:36.778Z,8.70
2023-04-25T15:57:38.370Z,8.40
2023-04-25T15:59:40.009Z,6.50
2023-04-25T16:01:41.643Z,10.10
2023-04-25T16:03:44.784Z,6.63
2023-04-25T16:05:46.516Z,9.20
2023-04-25T16:07:48.688Z,5.20
2023-04-25T16:09:50.271Z,7.07
2023-04-25T16:11:51.967Z,6.47
2023-04-25T16:13:53.631Z,10.27
2023-04-25T16:15:55.694Z,8.80
2023-04-25T16:17:57.325Z,5.63
2023-04-25T16:20:00.321Z,9.50
2023-04-25T16:22:01.993Z,10.77
2023-04-25T16:24:03.981Z,9.43
2023-04-25T16:26:05.574Z,5.80
2023-04-25T16:28:07.237Z,4.07
2023-04-25T16:30:10.933Z,9.27
2023-04-25T16:32:12.520Z,10.87
2023-04-25T16:34:14.429Z,6.30
2023-04-25T16:36:17.400Z,5.53
2023-04-25T16:38:19.688Z,6.03
2023-04-25T16:40:21.273Z,10.67
2023-04-25T16:42:22.929Z,7.40
2023-04-25T16:44:24.464Z,6.68
2023-04-25T16:46:26.273Z,7.47
2023-04-25T16:48:27.877Z,7.57
2023-04-25T16:50:29.489Z,6.90
2023-04-25T16:52:32.632Z,6.97
2023-04-25T16:54:34.176Z,5.73
2023-04-25T16:56:35.955Z,6.60
2023-04-25T16:58:37.547Z,7.93
2023-04-25T17:00:39.320Z,6.27
2023-04-25T17:02:41.071Z,6.73
2023-04-25T17:04:42.942Z,6.87
2023-04-25T17:06:45.960Z,6.53
2023-04-25T17:08:49.107Z,8.97
2023-04-25T17:10:51.094Z,5.60
2023-04-25T17:12:52.728Z,8.03
2023-04-25T17:14:54.643Z,5.00
2023-04-25T17:16:56.440Z,5.70
2023-04-25T17:18:58.204Z,6.70
2023-04-25T17:20:59.770Z,11.43
2023-04-25T17:23:01.623Z,8.43
2023-04-25T17:25:05.438Z,4.97
2023-04-25T17:27:07.104Z,5.30
2023-04-25T17:29:09.069Z,7.00
2023-04-25T17:31:10.978Z,6.77
2023-04-25T17:33:12.684Z,6.53
2023-04-25T17:35:14.281Z,6.80
2023-04-25T17:37:16.348Z,6.93
2023-04-25T17:39:18.777Z,7.30
2023-04-25T17:41:22.117Z,7.73
2023-04-25T17:43:24.177Z,6.23
2023-04-25T17:45:25.803Z,5.70
2023-04-25T17:47:27.490Z,7.13
2023-04-25T17:49:29.829Z,7.50
2023-04-25T17:51:31.581Z,7.50
2023-04-25T17:53:33.485Z,6.73
2023-04-25T17:55:35.031Z,11.27
2023-04-25T17:57:40.401Z,5.67
2023-04-25T17:59:42.328Z,5.90
2023-04-25T18:01:47.615Z,7.80
2023-04-25T18:03:50.564Z,6.43
2023-04-25T18:05:52.619Z,8.73
2023-04-25T18:07:54.260Z,17.33
2023-04-25T18:09:55.878Z,18.80
2023-04-25T18:11:59.561Z,14.30
2023-04-25T18:14:02.568Z,12.43
2023-04-25T18:16:04.810Z,22.47
2023-04-25T18:18:06.498Z,17.30
2023-04-25T18:20:11.380Z,10.30
2023-04-25T18:22:13.071Z,10.50
2023-04-25T18:24:15.395Z,16.17
2023-04-25T18:26:16.972Z,20.90
2023-04-25T18:28:19.405Z,13.90
2023-04-25T18:30:22.617Z,10.63
2023-04-25T18:32:24.197Z,9.20
2023-04-25T18:34:27.686Z,7.63
2023-04-25T18:36:29.983Z,7.27
2023-04-25T18:38:35.883Z,6.35
2023-04-25T18:40:47.027Z,5.50
2023-04-25T18:42:55.725Z,7.82
2023-04-25T18:44:58.493Z,4.70
2023-04-25T18:47:01.752Z,6.57
2023-04-25T18:49:03.492Z,13.82
2023-04-25T18:51:05.652Z,14.80
2023-04-25T18:53:07.348Z,12.00
2023-04-25T18:55:10.688Z,9.55
2023-04-25T18:57:12.568Z,6.20
2023-04-25T18:59:14.510Z,6.77
2023-04-25T19:01:16.416Z,6.03
2023-04-25T19:03:19.686Z,5.73
2023-04-25T19:05:22.372Z,5.53
2023-04-25T19:07:23.970Z,4.07
2023-04-25T19:09:25.875Z,5.60
2023-04-25T19:11:27.438Z,5.17
2023-04-25T19:13:29.408Z,5.70
2023-04-25T19:15:30.973Z,5.77
2023-04-25T19:17:32.812Z,5.57
2023-04-25T19:19:35.895Z,5.80
2023-04-25T19:21:38.204Z,5.93
2023-04-25T19:23:39.924Z,5.85
2023-04-25T19:25:41.806Z,7.77
2023-04-25T19:27:43.425Z,6.53
2023-04-25T19:29:45.057Z,5.93
2023-04-25T19:31:47.027Z,7.13
2023-04-25T19:33:49.151Z,5.30
2023-04-25T19:35:52.696Z,6.57
2023-04-25T19:37:54.591Z,6.00
2023-04-25T19:39:56.789Z,6.67
2023-04-25T19:41:58.364Z,10.73
2023-04-25T19:44:00.867Z,5.50
2023-04-25T19:46:02.483Z,6.70
2023-04-25T19:48:05.073Z,8.15
2023-04-25T19:50:09.106Z,6.37
2023-04-25T19:52:12.359Z,11.00
2023-04-25T19:54:14.204Z,12.50
2023-04-25T19:56:16.720Z,23.30
2023-04-25T19:58:18.874Z,23.83
2023-04-25T20:00:21.791Z,20.67
2023-04-25T20:02:26.015Z,17.80
2023-04-25T20:04:27.739Z,19.35
2023-04-25T20:06:29.347Z,29.83
2023-04-25T20:08:32.583Z,33.30
2023-04-25T20:10:34.204Z,36.20
2023-04-25T20:12:36.907Z,58.03
2023-04-25T20:14:38.616Z,60.70
2023-04-25T20:16:41.050Z,23.98
2023-04-25T20:18:42.662Z,18.43
2023-04-25T20:20:44.619Z,10.38
2023-04-25T20:22:46.272Z,11.20
2023-04-25T20:24:49.391Z,8.88
2023-04-25T20:26:51.259Z,10.50
2023-04-25T20:28:54.693Z,19.37
2023-04-25T20:30:57.295Z,23.20
2023-04-25T20:33:01.002Z,13.00
2023-04-25T20:35:03.596Z,9.63
2023-04-25T20:37:07.450Z,8.73
2023-04-25T20:39:10.334Z,11.63
2023-04-25T20:41:13.660Z,6.70
2023-04-25T20:43:15.730Z,7.35
2023-04-25T20:45:21.422Z,6.97
2023-04-25T20:47:23.187Z,5.03
2023-04-25T20:49:24.894Z,7.93
2023-04-25T20:51:26.704Z,9.70
2023-04-25T20:53:30.779Z,10.25
2023-04-25T20:55:32.577Z,7.70
2023-04-25T20:57:35.606Z,8.75
2023-04-25T20:59:37.268Z,5.33
2023-04-25T21:01:38.899Z,8.82
2023-04-25T21:03:40.862Z,10.43
2023-04-25T21:05:42.671Z,5.43
2023-04-25T21:07:44.658Z,8.63
2023-04-25T21:09:46.351Z,6.33
2023-04-25T21:11:48.258Z,13.43
2023-04-25T21:13:51.239Z,8.67
2023-04-25T21:15:54.071Z,6.63
2023-04-25T21:17:55.915Z,5.63
2023-04-25T21:19:57.500Z,11.63
2023-04-25T21:21:59.509Z,9.32
2023-04-25T21:24:03.498Z,13.87
2023-04-25T21:26:05.096Z,8.67
2023-04-25T21:28:06.760Z,6.35
2023-04-25T21:30:11.321Z,7.53
2023-04-25T21:32:13.420Z,8.03
2023-04-25T21:34:15.331Z,10.57
2023-04-25T21:36:16.894Z,7.00
2023-04-25T21:38:18.677Z,7.68
2023-04-25T21:40:20.531Z,5.97
2023-04-25T21:42:22.137Z,9.00
2023-04-25T21:44:25.863Z,8.68
2023-04-25T21:46:28.903Z,8.67
2023-04-25T21:48:30.520Z,10.02
2023-04-25T21:50:32.448Z,7.27
2023-04-25T21:52:35.801Z,8.68
2023-04-25T21:54:37.384Z,6.95
2023-04-25T21:56:38.921Z,8.50
2023-04-25T21:58:40.620Z,8.57
2023-04-25T22:00:42.251Z,6.13
2023-04-25T22:02:45.282Z,5.55
2023-04-25T22:04:47.016Z,8.63
2023-04-25T22:06:50.236Z,5.35
2023-04-25T22:08:52.087Z,6.78
2023-04-25T22:10:54.108Z,5.70
2023-04-25T22:12:55.662Z,11.43
2023-04-25T22:14:57.570Z,7.30
2023-04-25T22:16:59.295Z,5.28
2023-04-25T22:19:02.341Z,5.13
2023-04-25T22:21:04.460Z,6.80
2023-04-25T22:23:06.111Z,7.55
2023-04-25T22:25:08.965Z,7.22
2023-04-25T22:27:10.672Z,5.65
2023-04-25T22:29:12.376Z,5.68
2023-04-25T22:31:14.103Z,7.13
2023-04-25T22:33:15.691Z,6.72
2023-04-25T22:35:18.682Z,7.57
2023-04-25T22:37:20.261Z,8.07
2023-04-25T22:39:22.182Z,7.75
2023-04-25T22:41:23.807Z,4.85
2023-04-25T22:43:25.347Z,4.70
2023-04-25T22:45:27.016Z,6.60
2023-04-25T22:47:28.657Z,4.38
2023-04-25T22:49:30.285Z,10.88
2023-04-25T22:51:33.286Z,9.10
2023-04-25T22:53:35.254Z,6.65
2023-04-25T22:55:37.078Z,10.80
2023-04-25T22:57:39.652Z,5.03
2023-04-25T22:59:41.316Z,6.20
2023-04-25T23:01:43.087Z,6.93
2023-04-25T23:03:44.939Z,7.68
2023-04-25T23:05:46.882Z,7.05
2023-04-25T23:07:49.952Z,7.20
2023-04-25T23:09:51.568Z,6.68
2023-04-25T23:11:53.609Z,7.70
2023-04-25T23:13:56.422Z,9.25
2023-04-25T23:16:04.228Z,5.22
2023-04-25T23:18:07.462Z,6.67
2023-04-25T23:20:10.053Z,7.30
2023-04-25T23:22:11.668Z,8.85
2023-04-25T23:24:15.054Z,7.93
2023-04-25T23:26:16.868Z,8.38
2023-04-25T23:28:18.452Z,6.35
2023-04-25T23:30:20.221Z,6.00
2023-04-25T23:32:22.542Z,7.40
2023-04-25T23:34:24.146Z,6.35
2023-04-25T23:36:25.727Z,8.52
2023-04-25T23:38:27.837Z,8.90
2023-04-25T23:40:31.068Z,8.25
2023-04-25T23:42:32.715Z,8.10
2023-04-25T23:44:34.454Z,7.63
2023-04-25T23:46:36.337Z,7.43
2023-04-25T23:48:37.999Z,7.10
2023-04-25T23:50:39.851Z,5.82
2023-04-25T23:52:41.752Z,8.27
2023-04-25T23:54:43.416Z,6.00
2023-04-25T23:56:46.315Z,5.38
2023-04-25T23:58:47.917Z,7.50
